Time;durP1;ratioP1;P1;durP2;ratioP2;P2;SDS_P1;SDS_P2;PMS_P1;PMS_P2;Temp;Humidity;BMP_temperature;BMP_pressure;BME280_temperature;BME280_humidity;BME280_pressure;Samples;Min_cycle;Max_cycle;Signal;HPM_P1;HPM_P2
2024/01/04 00:02:23;;;;;;;3.50;1.20;;;;;;;7.50;77.87;96762.54;105812;1255;73804;-25
2024/01/04 00:04:50;;;;;;;1.80;1.20;;;;;;;7.32;78.59;96765.27;105730;1254;74570;-25
2024/01/04 00:07:17;;;;;;;2.40;1.60;;;;;;;7.11;79.54;96771.09;105798;1254;72642;-24
2024/01/04 00:09:44;;;;;;;1.30;1.00;;;;;;;7.10;80.07;96770.67;105885;1257;61971;-25
2024/01/04 00:12:11;;;;;;;2.10;1.30;;;;;;;7.62;78.52;96770.27;105678;1256;61157;-25
2024/01/04 00:14:38;;;;;;;2.60;1.40;;;;;;;7.70;77.58;96766.45;105793;1254;73788;-25
2024/01/04 00:17:05;;;;;;;2.10;1.50;;;;;;;7.73;77.32;96768.28;105515;1254;74051;-25
2024/01/04 00:19:32;;;;;;;3.20;1.40;;;;;;;7.52;77.62;96765.61;105861;1252;72661;-25
2024/01/04 00:21:59;;;;;;;2.80;1.50;;;;;;;7.21;78.95;96767.78;105574;1254;61100;-24
2024/01/04 00:24:25;;;;;;;1.30;1.10;;;;;;;7.24;79.33;96769.02;105884;1257;61202;-25
2024/01/04 00:26:52;;;;;;;1.70;1.30;;;;;;;7.74;77.47;96761.90;105812;1257;73724;-25
2024/01/04 00:29:19;;;;;;;1.40;1.00;;;;;;;7.81;76.51;96759.05;105772;1256;74380;-25
2024/01/04 00:31:46;;;;;;;1.80;1.20;;;;;;;7.68;76.74;96757.89;105892;1257;72568;-25
2024/01/04 00:34:13;;;;;;;4.90;1.50;;;;;;;7.38;77.71;96754.98;105926;1257;61086;-25
2024/01/04 00:36:40;;;;;;;2.70;1.40;;;;;;;7.13;78.44;96759.14;105909;1254;61179;-25
2024/01/04 00:39:08;;;;;;;3.20;1.10;;;;;;;7.07;78.94;96761.45;105871;1257;73499;-25
2024/01/04 00:41:35;;;;;;;3.80;1.50;;;;;;;7.45;77.58;96756.79;105802;1254;74159;-25
2024/01/04 00:44:02;;;;;;;4.40;1.30;;;;;;;7.48;77.19;96755.00;105742;1255;72366;-25
2024/01/04 00:46:29;;;;;;;2.20;1.40;;;;;;;7.31;77.26;96757.44;105756;1254;61165;-25
2024/01/04 00:48:56;;;;;;;3.30;1.50;;;;;;;7.09;78.35;96754.30;105823;1258;61061;-25
2024/01/04 00:51:23;;;;;;;3.00;1.90;;;;;;;6.88;79.30;96756.27;105877;1256;73772;-25
2024/01/04 00:53:51;;;;;;;1.50;1.10;;;;;;;6.88;79.87;96751.14;105881;1254;74297;-25
2024/01/04 00:56:18;;;;;;;1.90;1.60;;;;;;;7.40;78.35;96753.91;105812;1257;72617;-26
2024/01/04 00:58:45;;;;;;;2.10;1.20;;;;;;;7.56;77.16;96755.53;105889;1254;61228;-25
2024/01/04 01:01:12;;;;;;;2.30;1.40;;;;;;;7.44;77.52;96753.50;105847;1252;61102;-26
2024/01/04 01:03:39;;;;;;;2.20;1.40;;;;;;;7.17;78.52;96755.64;105601;1254;73844;-25
2024/01/04 01:06:12;;;;;;;2.20;1.20;;;;;;;6.98;79.38;96754.62;105636;1254;74290;-25
2024/01/04 01:08:39;;;;;;;2.50;1.20;;;;;;;7.28;78.91;96755.49;105657;1254;72687;-25
2024/01/04 01:11:10;;;;;;;1.80;1.40;;;;;;;7.59;77.28;96753.81;105854;1254;61052;-26
2024/01/04 01:13:37;;;;;;;4.10;1.30;;;;;;;7.68;76.82;96755.80;105799;1254;61166;-26
2024/01/04 01:16:05;;;;;;;2.10;1.50;;;;;;;7.51;77.11;96755.87;105889;1254;73813;-26
2024/01/04 01:18:31;;;;;;;2.20;1.40;;;;;;;7.34;77.50;96753.69;105874;1254;74321;-26
2024/01/04 01:20:59;;;;;;;2.40;1.10;;;;;;;7.12;78.48;96751.08;105917;1255;72603;-26
2024/01/04 01:23:26;;;;;;;2.30;0.90;;;;;;;7.53;77.72;96752.71;105536;1253;61172;-26
2024/01/04 01:25:53;;;;;;;2.60;1.60;;;;;;;7.74;76.18;96752.39;105552;1252;61088;-26
2024/01/04 01:28:20;;;;;;;1.50;1.10;;;;;;;7.62;76.33;96754.59;105712;1254;73884;-26
2024/01/04 01:30:47;;;;;;;2.30;1.40;;;;;;;7.45;76.76;96752.69;105835;1256;74392;-26
2024/01/04 01:33:13;;;;;;;3.00;1.50;;;;;;;7.27;77.36;96753.95;105665;1254;72672;-26
2024/01/04 01:35:41;;;;;;;2.30;1.20;;;;;;;7.11;77.86;96752.58;105751;1254;61644;-26
2024/01/04 01:38:07;;;;;;;2.00;1.30;;;;;;;7.50;77.30;96745.79;105546;1256;61121;-26
2024/01/04 01:40:34;;;;;;;2.40;1.10;;;;;;;7.94;75.38;96747.33;105731;1254;73666;-26
2024/01/04 01:43:01;;;;;;;3.60;1.30;;;;;;;7.94;74.87;96742.89;105763;1254;74247;-27
2024/01/04 01:45:28;;;;;;;1.80;1.20;;;;;;;7.76;75.18;96746.48;105927;1254;72601;-26
2024/01/04 01:47:55;;;;;;;2.10;1.30;;;;;;;7.53;75.97;96748.61;105814;1252;61150;-26
2024/01/04 01:50:22;;;;;;;2.40;1.50;;;;;;;7.37;76.53;96753.86;105799;1257;61262;-26
2024/01/04 01:52:53;;;;;;;3.00;1.10;;;;;;;7.30;77.38;96754.63;105721;1254;74833;-27
2024/01/04 01:55:20;;;;;;;3.50;1.30;;;;;;;7.83;75.78;96755.52;105878;1254;74473;-26
2024/01/04 01:57:47;;;;;;;3.40;1.40;;;;;;;7.97;74.86;96752.61;105603;1254;72651;-26
2024/01/04 02:00:14;;;;;;;1.80;1.40;;;;;;;7.85;74.74;96754.19;105623;1254;61173;-26
2024/01/04 02:02:47;;;;;;;2.20;1.20;;;;;;;7.62;75.38;96759.32;105570;1260;61265;-26
2024/01/04 02:05:15;;;;;;;4.00;1.40;;;;;;;7.34;76.35;96753.16;105479;1254;72398;-26
2024/01/04 02:07:45;;;;;;;2.20;1.30;;;;;;;7.23;77.16;96755.04;105292;1254;74184;-26
2024/01/04 02:10:13;;;;;;;1.70;1.20;;;;;;;7.68;75.87;96752.67;105809;1254;72326;-26
2024/01/04 02:12:40;;;;;;;1.30;1.00;;;;;;;7.86;74.87;96747.84;105716;1254;61139;-26
2024/01/04 02:15:08;;;;;;;2.30;1.10;;;;;;;7.78;74.95;96747.89;105580;1257;61191;-27
2024/01/04 02:17:35;;;;;;;1.80;1.00;;;;;;;7.60;75.15;96747.47;105688;1254;73676;-27
2024/01/04 02:20:03;;;;;;;1.80;1.00;;;;;;;7.36;76.24;96743.77;105628;1254;74616;-27
2024/01/04 02:22:31;;;;;;;1.70;1.10;;;;;;;7.30;76.85;96740.67;105834;1253;72586;-27
2024/01/04 02:24:57;;;;;;;1.90;1.20;;;;;;;7.62;75.60;96736.20;105778;1252;61078;-27
2024/01/04 02:27:24;;;;;;;1.40;1.20;;;;;;;7.75;75.19;96744.39;105831;1257;61147;-27
2024/01/04 02:29:51;;;;;;;1.60;0.90;;;;;;;7.59;75.49;96739.51;105790;1254;73860;-27
2024/01/04 02:32:18;;;;;;;1.40;0.80;;;;;;;7.38;76.22;96741.52;105718;1256;74257;-27
2024/01/04 02:34:46;;;;;;;1.30;1.00;;;;;;;7.11;77.29;96746.70;105771;1254;72493;-27
2024/01/04 02:37:12;;;;;;;1.60;0.90;;;;;;;7.37;77.18;96746.47;105890;1254;61071;-27
2024/01/04 02:39:39;;;;;;;2.20;1.30;;;;;;;7.77;75.28;96750.92;105847;1254;61128;-27
2024/01/04 02:42:06;;;;;;;2.80;1.30;;;;;;;7.78;74.63;96747.16;105825;1253;73786;-27
2024/01/04 02:44:33;;;;;;;1.40;1.10;;;;;;;7.52;75.62;96752.53;105918;1256;74800;-27
2024/01/04 02:47:00;;;;;;;1.70;1.00;;;;;;;7.36;76.13;96752.62;105772;1254;72659;-27
2024/01/04 02:49:29;;;;;;;2.10;1.30;;;;;;;7.11;77.24;96757.44;105540;1253;61163;-27
2024/01/04 02:51:56;;;;;;;1.80;1.00;;;;;;;7.09;77.81;96755.70;105703;1257;61091;-26
2024/01/04 02:54:22;;;;;;;1.40;1.20;;;;;;;7.54;76.31;96755.90;105891;1254;73514;-26
2024/01/04 02:56:49;;;;;;;1.50;1.10;;;;;;;7.73;75.50;96756.21;105653;1255;74104;-27
2024/01/04 02:59:16;;;;;;;1.60;1.10;;;;;;;7.64;75.33;96753.63;105766;1257;72638;-27
2024/01/04 03:01:48;;;;;;;2.10;1.70;;;;;;;7.43;76.10;96759.78;105784;1254;61055;-27
2024/01/04 03:04:15;;;;;;;1.50;1.10;;;;;;;7.20;76.98;96756.82;105622;1256;61186;-27
2024/01/04 03:06:42;;;;;;;0.70;0.70;;;;;;;7.08;78.10;96755.86;105497;1254;73706;-27
2024/01/04 03:09:09;;;;;;;1.90;1.00;;;;;;;7.55;76.97;96745.59;105665;1254;74846;-27
2024/01/04 03:11:36;;;;;;;1.60;1.10;;;;;;;7.76;75.85;96744.80;105721;1254;72499;-27
2024/01/04 03:14:03;;;;;;;2.30;0.90;;;;;;;7.68;76.09;96740.96;105725;1254;61083;-27
2024/01/04 03:16:30;;;;;;;1.30;0.90;;;;;;;7.52;76.70;96744.56;105875;1257;61156;-27
2024/01/04 03:18:57;;;;;;;1.60;1.20;;;;;;;7.27;77.84;96744.36;105868;1254;72754;-26
2024/01/04 03:21:24;;;;;;;1.20;1.00;;;;;;;7.15;78.65;96751.82;105599;1257;74549;-27
2024/01/04 03:23:52;;;;;;;1.20;0.80;;;;;;;7.49;78.29;96748.12;105602;1254;71807;-27
2024/01/04 03:26:19;;;;;;;1.50;1.10;;;;;;;7.76;77.25;96742.37;105613;1254;61055;-27
2024/01/04 03:28:45;;;;;;;1.30;0.90;;;;;;;7.71;77.03;96747.36;105814;1256;61150;-27
2024/01/04 03:31:13;;;;;;;1.50;1.00;;;;;;;7.56;77.69;96749.15;105835;1254;73816;-27
2024/01/04 03:33:40;;;;;;;1.00;0.90;;;;;;;7.37;78.42;96751.78;105627;1256;74826;-27
2024/01/04 03:36:09;;;;;;;0.80;0.70;;;;;;;7.25;79.22;96757.76;105898;1254;72614;-26
2024/01/04 03:38:35;;;;;;;1.30;0.80;;;;;;;7.66;78.43;96755.72;105819;1254;61107;-26
2024/01/04 03:41:03;;;;;;;1.00;0.90;;;;;;;7.96;77.29;96755.59;105885;1253;61086;-27
2024/01/04 03:43:30;;;;;;;1.20;0.80;;;;;;;7.91;77.28;96753.52;105759;1254;73607;-26
2024/01/04 03:45:57;;;;;;;1.00;0.70;;;;;;;7.70;78.09;96752.73;105721;1257;74196;-27
2024/01/04 03:48:24;;;;;;;1.20;0.80;;;;;;;7.54;78.87;96753.00;105717;1256;72592;-26
2024/01/04 03:50:51;;;;;;;4.90;1.40;;;;;;;7.38;79.76;96747.02;105541;1254;61704;-26
2024/01/04 03:53:18;;;;;;;2.00;1.00;;;;;;;7.81;78.58;96749.64;105832;1257;61205;-26
2024/01/04 03:55:45;;;;;;;2.30;0.80;;;;;;;8.12;77.14;96750.77;105921;1254;73752;-27
2024/01/04 03:58:11;;;;;;;2.60;0.80;;;;;;;8.01;77.10;96753.23;105960;1257;74409;-26
2024/01/04 04:00:38;;;;;;;1.00;0.70;;;;;;;7.80;77.95;96752.27;105901;1254;71940;-27
2024/01/04 04:03:05;;;;;;;0.80;0.70;;;;;;;7.61;78.97;96750.70;105665;1256;61096;-26
2024/01/04 04:05:33;;;;;;;0.90;0.70;;;;;;;7.52;79.93;96755.23;105571;1257;61093;-26
2024/01/04 04:08:00;;;;;;;1.50;0.80;;;;;;;8.05;78.39;96753.92;105733;1254;73866;-27
2024/01/04 04:10:27;;;;;;;1.10;0.70;;;;;;;8.24;77.44;96758.55;105733;1256;75412;-27
2024/01/04 04:12:54;;;;;;;3.30;1.00;;;;;;;8.13;77.29;96756.55;105794;1254;72622;-26
2024/01/04 04:15:21;;;;;;;1.80;1.00;;;;;;;7.83;78.26;96757.52;105729;1255;61325;-26
2024/01/04 04:17:48;;;;;;;1.90;0.90;;;;;;;7.63;79.04;96757.57;105623;1256;61097;-27
2024/01/04 04:20:16;;;;;;;1.70;1.10;;;;;;;7.64;79.71;96758.98;105855;1255;73819;-27
2024/01/04 04:22:43;;;;;;;1.00;0.80;;;;;;;8.16;78.12;96753.66;105826;1257;74137;-27
2024/01/04 04:25:10;;;;;;;1.80;0.80;;;;;;;8.30;77.02;96759.91;105689;1256;73075;-27
2024/01/04 04:27:37;;;;;;;2.40;0.90;;;;;;;8.07;77.33;96761.13;105777;1254;60937;-26
2024/01/04 04:30:06;;;;;;;1.10;0.80;;;;;;;7.87;78.13;96756.09;105826;1252;61143;-26
2024/01/04 04:32:33;;;;;;;1.60;1.00;;;;;;;7.62;79.38;96762.66;105851;1253;73961;-26
2024/01/04 04:35:00;;;;;;;1.30;0.80;;;;;;;7.49;80.00;96761.76;105892;1254;73086;-27
2024/01/04 04:37:27;;;;;;;1.20;0.90;;;;;;;8.00;78.77;96761.20;105941;1254;71819;-27
2024/01/04 04:39:54;;;;;;;1.30;0.90;;;;;;;8.29;77.17;96763.55;105853;1254;61236;-27
2024/01/04 04:42:21;;;;;;;0.80;0.70;;;;;;;8.23;77.13;96762.27;105874;1257;61125;-26
2024/01/04 04:44:48;;;;;;;1.40;0.90;;;;;;;8.04;77.54;96765.36;105832;1254;73873;-27
2024/01/04 04:47:14;;;;;;;2.90;1.00;;;;;;;7.79;78.37;96774.40;105702;1254;74382;-26
2024/01/04 04:49:42;;;;;;;1.00;0.70;;;;;;;7.61;79.00;96774.66;105650;1252;72667;-27
2024/01/04 04:52:09;;;;;;;0.80;0.60;;;;;;;7.98;78.16;96779.47;105726;1253;61134;-27
2024/01/04 04:54:35;;;;;;;1.10;0.80;;;;;;;8.29;76.86;96780.35;105858;1257;61175;-27
2024/01/04 04:57:04;;;;;;;1.20;0.80;;;;;;;8.19;76.86;96775.50;105901;1254;73909;-26
2024/01/04 04:59:31;;;;;;;1.00;0.90;;;;;;;8.02;77.13;96780.79;105788;1254;74442;-26
2024/01/04 05:01:58;;;;;;;1.50;1.10;;;;;;;7.79;77.99;96780.92;105881;1254;72565;-26
2024/01/04 05:04:25;;;;;;;2.10;1.00;;;;;;;7.58;79.18;96781.39;105811;1253;61771;-26
2024/01/04 05:06:52;;;;;;;1.50;0.80;;;;;;;8.02;78.00;96781.08;105877;1257;61195;-26
2024/01/04 05:09:20;;;;;;;0.90;0.70;;;;;;;8.28;76.96;96784.49;105690;1254;74313;-27
2024/01/04 05:11:46;;;;;;;0.80;0.70;;;;;;;8.08;77.11;96784.95;105925;1254;74303;-26
2024/01/04 05:14:14;;;;;;;2.30;1.10;;;;;;;7.92;77.71;96791.88;105902;1254;72751;-27
2024/01/04 05:16:40;;;;;;;4.70;1.20;;;;;;;7.66;78.61;96787.09;105911;1252;61144;-27
2024/01/04 05:19:10;;;;;;;2.30;0.70;;;;;;;7.54;79.23;96791.95;105925;1256;61166;-25
2024/01/04 05:21:38;;;;;;;1.20;0.70;;;;;;;7.91;78.55;96793.59;105673;1258;73832;-25
2024/01/04 05:24:05;;;;;;;1.10;0.80;;;;;;;8.22;77.13;96794.13;105682;1256;74393;-25
2024/01/04 05:26:32;;;;;;;1.40;0.80;;;;;;;8.22;76.97;96795.53;105732;1257;72739;-25
2024/01/04 05:28:59;;;;;;;0.90;0.60;;;;;;;7.94;77.63;96799.36;105744;1254;61075;-25
2024/01/04 05:31:26;;;;;;;1.30;0.90;;;;;;;7.74;78.37;96796.52;105685;1256;61112;-25
2024/01/04 05:33:53;;;;;;;1.10;0.60;;;;;;;7.67;78.79;96803.39;105668;1255;73832;-25
2024/01/04 05:36:21;;;;;;;1.20;0.90;;;;;;;8.17;77.70;96801.82;105778;1253;74416;-25
2024/01/04 05:38:49;;;;;;;1.10;0.80;;;;;;;8.40;76.50;96807.24;105682;1253;72762;-25
2024/01/04 05:41:16;;;;;;;1.50;0.70;;;;;;;8.32;76.14;96805.71;105754;1254;61071;-25
2024/01/04 05:43:43;;;;;;;1.40;0.70;;;;;;;8.06;76.63;96810.73;105726;1257;61156;-25
2024/01/04 05:46:10;;;;;;;1.50;1.00;;;;;;;7.81;77.17;96817.34;105646;1254;73709;-25
2024/01/04 05:48:37;;;;;;;0.60;0.60;;;;;;;7.59;77.91;96819.58;105524;1257;74324;-25
2024/01/04 05:51:04;;;;;;;1.50;0.80;;;;;;;7.96;77.55;96819.77;105737;1254;72557;-25
2024/01/04 05:53:31;;;;;;;0.70;0.60;;;;;;;8.23;76.36;96816.04;105652;1254;61213;-25
2024/01/04 05:55:58;;;;;;;1.00;0.90;;;;;;;8.25;76.08;96820.05;105710;1257;61125;-25
2024/01/04 05:58:24;;;;;;;1.80;0.80;;;;;;;8.04;76.28;96825.08;105937;1254;73710;-25
2024/01/04 06:00:51;;;;;;;1.20;0.90;;;;;;;7.81;76.84;96830.77;105809;1255;74402;-25
2024/01/04 06:03:18;;;;;;;1.20;0.80;;;;;;;7.48;77.99;96832.34;105631;1254;71117;-25
2024/01/04 06:05:45;;;;;;;2.70;0.80;;;;;;;7.64;78.17;96837.74;105565;1254;61096;-25
2024/01/04 06:08:12;;;;;;;1.30;0.80;;;;;;;7.99;76.83;96832.52;105545;1253;61170;-25
2024/01/04 06:10:39;;;;;;;1.40;0.70;;;;;;;8.05;76.27;96836.70;105573;1254;73909;-25
2024/01/04 06:13:07;;;;;;;1.80;0.80;;;;;;;7.87;76.69;96835.88;105575;1254;74388;-25
2024/01/04 06:15:34;;;;;;;1.90;0.80;;;;;;;7.66;77.34;96841.20;105765;1254;72429;-25
2024/01/04 06:18:01;;;;;;;1.40;1.00;;;;;;;7.48;78.58;96841.52;105874;1254;61762;-26
2024/01/04 06:20:29;;;;;;;1.00;0.90;;;;;;;7.97;77.13;96842.60;105819;1257;61074;-27
2024/01/04 06:22:55;;;;;;;1.70;0.90;;;;;;;8.29;75.82;96845.10;105921;1254;73656;-27
2024/01/04 06:25:22;;;;;;;1.80;0.90;;;;;;;8.16;75.63;96844.37;105773;1254;74465;-27
2024/01/04 06:27:50;;;;;;;1.20;0.90;;;;;;;8.00;76.09;96842.77;105767;1254;71342;-27
2024/01/04 06:30:17;;;;;;;1.90;0.90;;;;;;;7.79;76.55;96846.33;105892;1256;61141;-26
2024/01/04 06:32:46;;;;;;;3.70;1.70;;;;;;;7.60;77.41;96845.76;105938;1256;61106;-26
2024/01/04 06:35:13;;;;;;;1.40;0.70;;;;;;;7.92;76.97;96850.57;105824;1254;73541;-26
2024/01/04 06:37:40;;;;;;;1.40;1.00;;;;;;;8.16;75.77;96847.28;105709;1254;74508;-27
2024/01/04 06:40:08;;;;;;;1.50;0.90;;;;;;;8.07;75.65;96849.66;105863;1254;72687;-27
2024/01/04 06:42:36;;;;;;;2.80;1.30;;;;;;;7.92;75.87;96853.05;105690;1254;61033;-27
2024/01/04 06:45:05;;;;;;;1.80;1.20;;;;;;;7.76;76.44;96856.23;105701;1252;61135;-26
2024/01/04 06:47:33;;;;;;;1.60;0.80;;;;;;;7.59;77.38;96861.39;105581;1259;184506;-27
2024/01/04 06:50:00;;;;;;;2.00;1.20;;;;;;;7.97;76.70;96864.34;105800;1253;74576;-27
2024/01/04 06:52:43;;;;;;;1.00;0.80;;;;;;;8.20;75.43;96859.41;105701;1254;72739;-26
2024/01/04 06:55:12;;;;;;;2.80;1.20;;;;;;;7.91;76.21;96858.60;105859;1257;61334;-27
2024/01/04 06:57:39;;;;;;;5.60;1.30;;;;;;;7.70;76.95;96860.25;105696;1260;61122;-26
2024/01/04 07:00:07;;;;;;;2.90;1.30;;;;;;;7.60;77.09;96853.57;105905;1254;73514;-26
2024/01/04 07:02:35;;;;;;;1.30;0.90;;;;;;;7.32;78.51;96852.13;105706;1254;72577;-26
2024/01/04 07:05:03;;;;;;;1.90;1.00;;;;;;;7.68;77.63;96850.24;105775;1254;72488;-27
2024/01/04 07:07:31;;;;;;;1.50;1.10;;;;;;;8.00;76.13;96848.81;105665;1252;61178;-26
2024/01/04 07:09:58;;;;;;;2.30;1.30;;;;;;;7.78;76.40;96855.23;105785;1257;61218;-26
2024/01/04 07:12:25;;;;;;;1.50;1.00;;;;;;;7.73;76.50;96853.94;105913;1254;74308;-26
2024/01/04 07:14:53;;;;;;;2.80;1.10;;;;;;;7.60;77.22;96852.85;105712;1254;74617;-26
2024/01/04 07:17:20;;;;;;;1.80;1.00;;;;;;;7.43;77.64;96850.40;105646;1254;72430;-26
2024/01/04 07:19:47;;;;;;;2.00;1.40;;;;;;;7.89;76.79;96851.19;105543;1253;61160;-26
2024/01/04 07:22:18;;;;;;;3.40;1.10;;;;;;;8.24;75.08;96852.88;105666;1252;61529;-26
2024/01/04 07:24:45;;;;;;;2.40;1.10;;;;;;;8.22;75.08;96851.17;105778;1254;73724;-26
2024/01/04 07:27:12;;;;;;;2.90;1.00;;;;;;;8.16;74.88;96856.00;105920;1254;74357;-27
2024/01/04 07:29:39;;;;;;;3.40;1.40;;;;;;;7.74;76.03;96852.38;105906;1252;72598;-27
2024/01/04 07:32:06;;;;;;;1.60;1.10;;;;;;;7.71;76.24;96858.91;105635;1253;61222;-28
2024/01/04 07:34:37;;;;;;;0.90;0.80;;;;;;;7.92;76.05;96857.79;105652;1257;61160;-27
2024/01/04 07:37:04;;;;;;;4.10;1.40;;;;;;;8.23;74.54;96852.98;105689;1259;72428;-27
2024/01/04 07:39:30;;;;;;;2.70;1.20;;;;;;;8.12;74.50;96854.48;105949;1254;74292;-27
2024/01/04 07:41:57;;;;;;;2.10;1.60;;;;;;;8.28;74.14;96858.85;105908;1254;72628;-27
2024/01/04 07:44:25;;;;;;;1.20;0.90;;;;;;;8.15;74.21;96855.36;105775;1254;61058;-27
2024/01/04 07:46:52;;;;;;;2.00;1.20;;;;;;;7.96;74.91;96861.20;105753;1252;61176;-27
2024/01/04 07:49:19;;;;;;;1.80;1.00;;;;;;;7.94;75.47;96863.30;105810;1254;73708;-26
2024/01/04 07:51:46;;;;;;;2.20;1.00;;;;;;;8.24;74.06;96854.98;105733;1256;73421;-27
2024/01/04 07:54:13;;;;;;;2.20;1.00;;;;;;;8.59;72.77;96862.51;105952;1254;72761;-27
2024/01/04 07:56:40;;;;;;;2.00;1.20;;;;;;;8.47;72.74;96856.33;105901;1254;61076;-27
2024/01/04 07:59:08;;;;;;;1.90;1.40;;;;;;;8.28;73.51;96863.41;105928;1256;61170;-27
2024/01/04 08:01:35;;;;;;;1.50;1.00;;;;;;;8.05;75.20;96859.55;105793;1254;73686;-27
2024/01/04 08:04:03;;;;;;;2.00;1.20;;;;;;;7.81;75.95;96864.44;105934;1254;74963;-27
2024/01/04 08:06:31;;;;;;;3.10;1.20;;;;;;;8.05;75.76;96864.56;105906;1254;73171;-25
2024/01/04 08:08:58;;;;;;;5.80;1.30;;;;;;;8.35;75.25;96863.45;105730;1254;61144;-26
2024/01/04 08:11:25;;;;;;;2.70;1.20;;;;;;;8.44;74.60;96862.16;105841;1253;61103;-26
2024/01/04 08:13:52;;;;;;;2.10;1.00;;;;;;;8.30;75.17;96866.30;105886;1255;73378;-27
2024/01/04 08:16:19;;;;;;;2.30;1.30;;;;;;;8.14;75.54;96857.76;105919;1254;74341;-27
2024/01/04 08:18:46;;;;;;;3.20;1.30;;;;;;;7.96;76.50;96864.87;105802;1254;72411;-27
2024/01/04 08:21:15;;;;;;;1.50;0.80;;;;;;;7.83;77.30;96868.36;105688;1254;62025;-27
2024/01/04 08:23:42;;;;;;;1.70;1.20;;;;;;;8.42;76.43;96863.46;105798;1259;61091;-27
2024/01/04 08:26:10;;;;;;;1.80;1.00;;;;;;;8.89;74.75;96863.59;105947;1254;74321;-27
2024/01/04 08:28:38;;;;;;;1.80;1.00;;;;;;;8.90;74.34;96857.29;105807;1254;74269;-27
2024/01/04 08:31:05;;;;;;;4.20;1.20;;;;;;;8.71;74.56;96858.29;105792;1254;72738;-27
2024/01/04 08:33:32;;;;;;;1.90;1.30;;;;;;;8.51;75.32;96858.98;105967;1253;61031;-27
2024/01/04 08:36:00;;;;;;;1.90;0.90;;;;;;;8.29;76.14;96867.05;105898;1256;61164;-27
2024/01/04 08:38:29;;;;;;;1.20;0.80;;;;;;;8.17;77.24;96866.98;105860;1254;72902;-27
2024/01/04 08:40:57;;;;;;;3.10;1.10;;;;;;;8.77;75.75;96868.33;105647;1255;74655;-27
2024/01/04 08:43:24;;;;;;;1.20;0.90;;;;;;;8.94;74.53;96865.16;105551;1254;71672;-27
2024/01/04 08:45:50;;;;;;;2.80;1.20;;;;;;;8.88;74.56;96859.05;105531;1256;61046;-27
2024/01/04 08:48:17;;;;;;;1.60;1.40;;;;;;;8.88;74.89;96860.27;105701;1257;61180;-27
2024/01/04 08:50:45;;;;;;;1.10;0.90;;;;;;;8.86;74.54;96859.51;105470;1254;73300;-27
2024/01/04 08:53:13;;;;;;;3.10;1.10;;;;;;;8.87;74.67;96852.63;105542;1254;74173;-27
2024/01/04 08:55:40;;;;;;;2.70;1.10;;;;;;;8.97;74.22;96844.25;105798;1254;72031;-27
2024/01/04 08:58:08;;;;;;;5.00;1.30;;;;;;;8.97;73.49;96848.77;105904;1254;61102;-27
2024/01/04 09:00:36;;;;;;;1.50;0.90;;;;;;;8.84;74.12;96853.09;105889;1256;61798;-27
2024/01/04 09:03:03;;;;;;;1.80;1.00;;;;;;;8.91;74.02;96853.88;105602;1254;73886;-27
2024/01/04 09:05:31;;;;;;;1.80;0.90;;;;;;;9.52;72.57;96860.67;105797;1256;74305;-27
2024/01/04 09:07:58;;;;;;;3.00;1.10;;;;;;;9.65;71.29;96863.45;105726;1254;72976;-27
2024/01/04 09:10:25;;;;;;;1.50;1.10;;;;;;;9.31;71.44;96859.50;105671;1254;61039;-27
2024/01/04 09:12:52;;;;;;;1.60;1.00;;;;;;;9.03;71.78;96859.71;105755;1256;61163;-27
2024/01/04 09:15:19;;;;;;;1.80;1.40;;;;;;;8.68;72.56;96862.93;105664;1254;75121;-27
2024/01/04 09:17:46;;;;;;;1.40;1.00;;;;;;;8.33;74.11;96865.39;105797;1254;74349;-27
2024/01/04 09:20:13;;;;;;;1.30;1.00;;;;;;;8.38;74.03;96862.74;105832;1254;72661;-26
2024/01/04 09:22:40;;;;;;;2.30;1.30;;;;;;;8.86;72.85;96864.27;105855;1254;61139;-27
2024/01/04 09:25:07;;;;;;;1.90;1.00;;;;;;;9.34;71.39;96860.45;105864;1253;61058;-27
2024/01/04 09:27:34;;;;;;;1.90;1.10;;;;;;;9.33;71.37;96862.05;105908;1256;73806;-27
2024/01/04 09:30:01;;;;;;;1.60;1.20;;;;;;;8.99;71.84;96858.91;105883;1254;74407;-27
2024/01/04 09:32:29;;;;;;;2.00;1.10;;;;;;;8.91;72.51;96864.13;105905;1254;71656;-27
2024/01/04 09:34:56;;;;;;;2.00;1.10;;;;;;;8.75;72.56;96859.91;105694;1254;61214;-27
2024/01/04 09:37:23;;;;;;;4.60;0.90;;;;;;;8.66;73.30;96853.77;105733;1252;61584;-27
2024/01/04 09:39:54;;;;;;;0.80;0.80;;;;;;;9.34;71.85;96853.45;105923;1256;73254;-27
2024/01/04 09:42:21;;;;;;;2.20;1.10;;;;;;;9.64;69.83;96844.59;105937;1254;74684;-27
2024/01/04 09:44:49;;;;;;;4.80;1.20;;;;;;;9.64;69.71;96846.12;105891;1254;73934;-27
2024/01/04 09:47:15;;;;;;;1.50;1.00;;;;;;;9.46;70.00;96840.79;105751;1257;61133;-25
2024/01/04 09:49:43;;;;;;;1.50;0.90;;;;;;;9.29;70.41;96839.16;105556;1252;61173;-28
2024/01/04 09:52:10;;;;;;;1.80;1.00;;;;;;;9.12;70.70;96839.18;105664;1254;73260;-28
2024/01/04 09:54:38;;;;;;;3.00;1.30;;;;;;;8.99;71.55;96833.95;105802;1254;74697;-26
2024/01/04 09:57:07;;;;;;;1.10;0.80;;;;;;;8.93;71.84;96830.28;105619;1254;72626;-27
2024/01/04 09:59:34;;;;;;;2.30;1.00;;;;;;;9.56;70.62;96830.64;105678;1254;61072;-27
2024/01/04 10:02:03;;;;;;;1.80;1.00;;;;;;;9.96;69.33;96831.38;105710;1254;61906;-27
2024/01/04 10:04:30;;;;;;;3.00;1.50;;;;;;;9.93;68.55;96824.75;105730;1254;73881;-27
2024/01/04 10:06:59;;;;;;;3.00;2.10;;;;;;;9.79;69.12;96822.86;105893;1254;74348;-27
2024/01/04 10:09:38;;;;;;;2.40;1.30;;;;;;;9.63;69.91;96820.50;105720;1254;73968;-27
2024/01/04 10:12:08;;;;;;;5.10;1.20;;;;;;;9.44;69.91;96813.05;105489;1259;61221;-27
2024/01/04 10:14:35;;;;;;;2.30;1.20;;;;;;;9.30;70.21;96810.25;105651;1254;61145;-28
2024/01/04 10:17:02;;;;;;;1.20;0.90;;;;;;;9.17;70.94;96811.08;105739;1254;73701;-27
2024/01/04 10:19:31;;;;;;;2.10;1.10;;;;;;;9.64;70.07;96809.63;105816;1254;74657;-27
2024/01/04 10:22:05;;;;;;;2.30;1.00;;;;;;;10.00;68.33;96815.61;105581;1259;70399;-27
2024/01/04 10:24:37;;;;;;;2.00;1.30;;;;;;;10.10;68.43;96813.16;105610;1252;61020;-27
2024/01/04 10:27:05;;;;;;;1.90;1.00;;;;;;;9.90;69.04;96811.55;105625;1259;61144;-31
2024/01/04 10:29:35;;;;;;;2.90;1.30;;;;;;;9.71;69.23;96806.91;105678;1259;73949;-27
2024/01/04 10:32:05;;;;;;;1.70;1.10;;;;;;;9.48;70.08;96804.89;105706;1254;75162;-27
2024/01/04 10:35:35;;;;;;;1.50;1.00;;;;;;;9.28;70.97;96803.41;103140;1286;600000;-25
2024/01/04 10:38:03;;;;;;;1.00;0.70;;;;;;;9.28;70.85;96798.45;104899;1269;61232;-26
2024/01/04 10:40:31;;;;;;;1.60;0.80;;;;;;;9.78;69.91;96802.73;105071;1263;61895;-27
2024/01/04 10:43:01;;;;;;;1.70;1.20;;;;;;;10.23;68.07;96797.88;105071;1264;71042;-27
2024/01/04 10:45:32;;;;;;;1.50;0.90;;;;;;;10.31;67.07;96793.83;104872;1270;75601;-27
2024/01/04 10:48:00;;;;;;;1.20;1.00;;;;;;;10.26;67.23;96795.15;104818;1267;71374;-28
2024/01/04 10:50:28;;;;;;;1.40;1.00;;;;;;;10.11;67.66;96799.14;105075;1264;61077;-27
2024/01/04 11:00:33;;;;;;;2.00;0.70;;;;;;;9.51;70.10;96788.80;102681;1294;600184;-25
2024/01/04 11:03:03;;;;;;;1.90;1.20;;;;;;;10.05;69.22;96788.65;105065;1269;62767;-25
2024/01/04 11:05:30;;;;;;;1.00;0.90;;;;;;;10.40;67.46;96785.04;104860;1271;62076;-25
2024/01/04 11:07:58;;;;;;;3.10;1.40;;;;;;;10.36;67.04;96782.96;104801;1264;71218;-25
2024/01/04 11:10:26;;;;;;;2.50;1.30;;;;;;;10.12;67.31;96785.86;104817;1271;74544;-24
2024/01/04 11:12:55;;;;;;;1.60;0.80;;;;;;;9.93;67.89;96785.94;104707;1271;74714;-28
2024/01/04 11:22:59;;;;;;;1.50;0.90;;;;;;;9.40;70.11;96791.55;103061;1287;600713;-26
2024/01/04 11:26:01;;;;;;;2.20;1.10;;;;;;;10.02;68.39;96796.20;104829;1270;61247;-26
2024/01/04 11:28:29;;;;;;;1.70;1.30;;;;;;;10.14;67.25;96794.31;104870;1266;61161;-26
2024/01/04 11:38:44;;;;;;;2.30;1.40;;;;;;;9.51;70.07;96797.75;102710;1289;599414;-25
2024/01/04 11:48:55;;;;;;;2.20;1.10;;;;;;;10.18;68.79;96804.06;102652;1292;600160;-25
2024/01/04 11:51:33;;;;;;;2.70;1.20;;;;;;;10.15;68.68;96807.88;104815;1265;61897;-25
2024/01/04 11:54:01;;;;;;;1.20;1.10;;;;;;;9.97;68.85;96808.40;104801;1266;61114;-25
2024/01/04 11:56:29;;;;;;;3.50;1.30;;;;;;;9.86;69.12;96809.44;104882;1270;74570;-25
2024/01/04 11:59:07;;;;;;;1.90;1.70;;;;;;;9.70;69.95;96809.70;105432;1260;74324;-25
2024/01/04 12:01:36;;;;;;;3.50;1.10;;;;;;;9.45;71.22;96811.95;105103;1257;172219;-25
2024/01/04 12:04:22;;;;;;;1.40;0.90;;;;;;;9.25;71.54;96806.49;105292;1257;61360;-25
2024/01/04 12:06:50;;;;;;;1.40;0.90;;;;;;;9.87;70.97;96813.61;105305;1256;61218;-26